createdAt,value
2018-12-19T00:43:21.974Z,45.40
2018-12-19T00:53:26.694Z,45.40
2018-12-19T01:03:31.332Z,45.30
2018-12-19T01:13:36.031Z,45.50
2018-12-19T01:23:40.857Z,45.50
2018-12-19T01:33:45.422Z,45.60
2018-12-19T01:43:50.057Z,45.50
2018-12-19T01:53:54.969Z,45.60
2018-12-19T02:04:00.407Z,45.80
2018-12-19T02:14:05.176Z,45.60
2018-12-19T02:24:12.149Z,45.60
2018-12-19T02:34:17.897Z,45.50
2018-12-19T02:44:22.531Z,45.70
2018-12-19T02:54:27.217Z,45.80
2018-12-19T03:04:31.818Z,45.70
2018-12-19T03:14:38.884Z,45.60
2018-12-19T03:24:43.700Z,45.70
2018-12-19T03:34:48.306Z,45.70
2018-12-19T03:44:53.819Z,45.80
2018-12-19T03:54:59.162Z,45.80
2018-12-19T04:05:03.818Z,45.80
2018-12-19T04:15:08.517Z,45.80
2018-12-19T04:25:13.240Z,45.80
2018-12-19T04:35:17.826Z,46.00
2018-12-19T04:45:22.370Z,46.00
2018-12-19T04:55:27.108Z,46.00
2018-12-19T05:05:33.121Z,46.00
2018-12-19T05:15:37.742Z,46.00
2018-12-19T05:25:42.390Z,46.10
2018-12-19T05:35:47.509Z,46.20
2018-12-19T05:45:52.227Z,46.30
2018-12-19T05:55:56.908Z,46.20
2018-12-19T06:06:01.589Z,46.40
2018-12-19T06:16:06.273Z,46.40
2018-12-19T06:26:10.982Z,46.70
2018-12-19T06:36:15.882Z,46.90
2018-12-19T06:46:21.061Z,47.10
2018-12-19T06:56:25.666Z,46.90
2018-12-19T07:06:30.213Z,46.90
2018-12-19T07:16:35.015Z,46.80
2018-12-19T07:26:39.935Z,47.10
2018-12-19T07:36:44.605Z,47.30
2018-12-19T07:46:49.916Z,47.20
2018-12-19T07:56:55.001Z,47.10
2018-12-19T08:06:59.607Z,41.70
2018-12-19T08:17:04.170Z,42.80
2018-12-19T08:27:08.982Z,43.40
2018-12-19T08:37:14.477Z,43.90
2018-12-19T08:47:19.619Z,44.10
2018-12-19T08:57:24.241Z,43.20
2018-12-19T09:07:30.649Z,43.50
2018-12-19T09:17:35.891Z,43.00
2018-12-19T09:27:40.847Z,43.30
2018-12-19T09:37:45.654Z,43.50
2018-12-19T09:47:50.615Z,43.30
2018-12-19T09:57:56.654Z,45.80
2018-12-19T10:08:01.944Z,46.70
2018-12-19T10:18:07.044Z,44.60
2018-12-19T10:28:13.828Z,43.90
2018-12-19T10:38:19.395Z,45.00
2018-12-19T10:48:24.030Z,43.30
2018-12-19T10:58:28.913Z,43.30
2018-12-19T11:08:33.862Z,43.70
2018-12-19T11:18:38.680Z,44.30
2018-12-19T11:28:43.705Z,44.60
2018-12-19T11:38:48.458Z,44.60
2018-12-19T11:48:54.307Z,44.70
2018-12-19T11:58:59.074Z,45.40
2018-12-19T12:09:04.822Z,44.80
2018-12-19T12:19:09.674Z,41.80
2018-12-19T12:29:14.318Z,41.40
2018-12-19T12:39:20.951Z,40.10
2018-12-19T12:49:25.626Z,38.40
2018-12-19T12:59:30.237Z,39.20
2018-12-19T13:09:34.914Z,40.00
2018-12-19T13:19:39.595Z,40.40
2018-12-19T13:29:45.237Z,40.80
2018-12-19T13:39:50.386Z,41.10
2018-12-19T13:49:55.107Z,41.30
2018-12-19T13:59:59.999Z,41.60
2018-12-19T14:10:05.499Z,41.90
2018-12-19T14:20:10.312Z,42.00
2018-12-19T14:30:15.385Z,42.00
2018-12-19T14:40:20.537Z,42.20
2018-12-19T14:50:25.306Z,42.20
2018-12-19T15:00:30.066Z,42.40
2018-12-19T15:10:34.741Z,42.50
2018-12-19T15:20:39.516Z,42.60
2018-12-19T15:30:45.840Z,42.60
2018-12-19T15:40:50.630Z,42.70
2018-12-19T15:50:55.403Z,42.70
2018-12-19T16:01:00.782Z,42.80
2018-12-19T16:11:05.469Z,42.90
2018-12-19T16:21:10.284Z,42.90
2018-12-19T16:31:14.874Z,43.00
2018-12-19T16:41:20.657Z,43.10
2018-12-19T16:51:25.640Z,43.10
2018-12-19T17:01:30.491Z,42.60
2018-12-19T17:11:35.735Z,43.20
2018-12-19T17:21:40.399Z,43.20
2018-12-19T17:31:45.166Z,43.20
2018-12-19T17:41:51.262Z,43.30
2018-12-19T17:51:56.134Z,43.60
2018-12-19T18:02:00.879Z,43.40
2018-12-19T18:12:05.541Z,43.40
2018-12-19T18:22:10.371Z,43.40
2018-12-19T18:32:15.975Z,43.50
2018-12-19T18:42:20.861Z,43.50
2018-12-19T18:52:25.561Z,43.50
2018-12-19T19:02:30.516Z,43.50
2018-12-19T19:12:35.404Z,43.70
2018-12-19T19:22:40.129Z,43.50
2018-12-19T19:32:44.818Z,43.60
2018-12-19T19:42:49.373Z,43.70
2018-12-19T19:52:53.978Z,43.70
2018-12-19T20:02:58.814Z,43.80
2018-12-19T20:13:03.430Z,43.70
2018-12-19T20:23:08.589Z,44.10
2018-12-19T20:33:13.886Z,43.70
2018-12-19T20:43:19.062Z,43.70
2018-12-19T20:53:23.661Z,43.80
2018-12-19T21:03:28.458Z,43.70
2018-12-19T21:13:33.208Z,43.70
2018-12-19T21:23:38.735Z,46.60
2018-12-19T21:33:43.826Z,45.00
2018-12-19T21:43:53.647Z,45.20
2018-12-19T21:53:56.809Z,44.90
2018-12-19T22:04:03.345Z,44.40
2018-12-19T22:14:09.714Z,44.40
2018-12-19T22:24:16.053Z,44.30
2018-12-19T22:34:20.816Z,44.30
2018-12-19T22:44:25.572Z,44.20
2018-12-19T22:54:30.639Z,44.30
2018-12-19T23:04:35.213Z,44.40
2018-12-19T23:14:39.988Z,44.40
2018-12-19T23:24:45.108Z,44.30
2018-12-19T23:34:49.930Z,44.40
2018-12-19T23:44:54.839Z,44.40
2018-12-19T23:54:59.969Z,45.10
